Terminal Aerodrome Forecast
Issued by NWS

Current Version | Previous Version | Text Only | Print | Product List | Glossary On
Versions: 1 2 3 4 5 6 7 8 9 10 11 12 13
000
FTUS45 KSLC 011120
TAFENV
TAF
KENV 011120Z 0112/0212 VRB05KT P6SM SCT120
     FM011600 11008KT P6SM SCT080 SCT120
     FM012100 23011G17KT P6SM VCSH SCT080 BKN120
     FM020200 35009KT P6SM FEW080 SCT120
     FM020700 VRB04KT P6SM FEW080
      AMD NOT SKED=

USA.gov is the U.S. government's official web portal to all federal, state and local government web resources and services.